sensor_id;sensor_type;location;lat;lon;timestamp;P1;durP1;ratioP1;P2;durP2;ratioP2
30818;SDS011;17546;42.674;23.284;2022-11-15T00:00:07;80.63;;;37.53;;
30818;SDS011;17546;42.674;23.284;2022-11-15T00:02:33;87.63;;;38.97;;
30818;SDS011;17546;42.674;23.284;2022-11-15T00:04:58;85.57;;;38.90;;
30818;SDS011;17546;42.674;23.284;2022-11-15T00:07:23;81.82;;;39.38;;
30818;SDS011;17546;42.674;23.284;2022-11-15T00:09:49;91.45;;;40.75;;
30818;SDS011;17546;42.674;23.284;2022-11-15T00:12:14;83.10;;;37.47;;
30818;SDS011;17546;42.674;23.284;2022-11-15T00:14:39;90.65;;;39.15;;
30818;SDS011;17546;42.674;23.284;2022-11-15T00:17:05;81.03;;;39.47;;
30818;SDS011;17546;42.674;23.284;2022-11-15T00:19:30;82.53;;;38.03;;
30818;SDS011;17546;42.674;23.284;2022-11-15T00:21:56;85.70;;;38.72;;
30818;SDS011;17546;42.674;23.284;2022-11-15T00:24:21;89.93;;;39.72;;
30818;SDS011;17546;42.674;23.284;2022-11-15T00:26:47;87.53;;;39.42;;
30818;SDS011;17546;42.674;23.284;2022-11-15T00:29:12;83.18;;;39.38;;
30818;SDS011;17546;42.674;23.284;2022-11-15T00:31:38;83.15;;;39.28;;
30818;SDS011;17546;42.674;23.284;2022-11-15T00:34:03;94.55;;;40.75;;
30818;SDS011;17546;42.674;23.284;2022-11-15T00:36:28;82.20;;;38.42;;
30818;SDS011;17546;42.674;23.284;2022-11-15T00:39:03;92.53;;;41.35;;
30818;SDS011;17546;42.674;23.284;2022-11-15T00:41:30;82.05;;;38.33;;
30818;SDS011;17546;42.674;23.284;2022-11-15T00:43:56;77.93;;;36.45;;
30818;SDS011;17546;42.674;23.284;2022-11-15T00:46:21;84.03;;;37.83;;
30818;SDS011;17546;42.674;23.284;2022-11-15T00:48:47;82.93;;;35.90;;
30818;SDS011;17546;42.674;23.284;2022-11-15T00:51:12;82.53;;;36.47;;
30818;SDS011;17546;42.674;23.284;2022-11-15T00:53:38;80.80;;;37.40;;
30818;SDS011;17546;42.674;23.284;2022-11-15T00:56:03;79.68;;;36.47;;
30818;SDS011;17546;42.674;23.284;2022-11-15T00:58:29;78.82;;;36.92;;
30818;SDS011;17546;42.674;23.284;2022-11-15T01:00:54;82.78;;;36.40;;
30818;SDS011;17546;42.674;23.284;2022-11-15T01:03:20;80.03;;;36.30;;
30818;SDS011;17546;42.674;23.284;2022-11-15T01:05:45;80.72;;;35.65;;
30818;SDS011;17546;42.674;23.284;2022-11-15T01:08:14;84.22;;;38.13;;
30818;SDS011;17546;42.674;23.284;2022-11-15T01:10:41;75.03;;;35.25;;
30818;SDS011;17546;42.674;23.284;2022-11-15T01:13:07;82.35;;;35.78;;
30818;SDS011;17546;42.674;23.284;2022-11-15T01:15:33;72.50;;;34.58;;
30818;SDS011;17546;42.674;23.284;2022-11-15T01:17:58;75.00;;;34.63;;
30818;SDS011;17546;42.674;23.284;2022-11-15T01:20:24;75.43;;;34.72;;
30818;SDS011;17546;42.674;23.284;2022-11-15T01:22:49;81.93;;;35.38;;
30818;SDS011;17546;42.674;23.284;2022-11-15T01:25:14;78.00;;;35.10;;
30818;SDS011;17546;42.674;23.284;2022-11-15T01:27:40;71.75;;;34.80;;
30818;SDS011;17546;42.674;23.284;2022-11-15T01:30:05;73.05;;;32.92;;
30818;SDS011;17546;42.674;23.284;2022-11-15T01:32:31;71.75;;;33.35;;
30818;SDS011;17546;42.674;23.284;2022-11-15T01:34:57;72.93;;;33.03;;
30818;SDS011;17546;42.674;23.284;2022-11-15T01:37:22;70.68;;;33.50;;
30818;SDS011;17546;42.674;23.284;2022-11-15T01:39:48;67.85;;;33.55;;
30818;SDS011;17546;42.674;23.284;2022-11-15T01:42:13;71.68;;;33.30;;
30818;SDS011;17546;42.674;23.284;2022-11-15T01:47:29;66.15;;;30.95;;
30818;SDS011;17546;42.674;23.284;2022-11-15T01:52:47;68.80;;;31.33;;
30818;SDS011;17546;42.674;23.284;2022-11-15T01:55:17;66.78;;;31.45;;
30818;SDS011;17546;42.674;23.284;2022-11-15T01:57:46;70.07;;;32.03;;
30818;SDS011;17546;42.674;23.284;2022-11-15T02:00:14;67.40;;;29.85;;
30818;SDS011;17546;42.674;23.284;2022-11-15T02:02:40;59.97;;;29.60;;
30818;SDS011;17546;42.674;23.284;2022-11-15T02:05:06;62.92;;;29.65;;
30818;SDS011;17546;42.674;23.284;2022-11-15T02:07:32;55.67;;;28.50;;
30818;SDS011;17546;42.674;23.284;2022-11-15T02:10:02;60.28;;;28.33;;
30818;SDS011;17546;42.674;23.284;2022-11-15T02:12:32;60.53;;;28.38;;
30818;SDS011;17546;42.674;23.284;2022-11-15T02:14:58;63.05;;;29.08;;
30818;SDS011;17546;42.674;23.284;2022-11-15T02:37:03;58.28;;;27.80;;
30818;SDS011;17546;42.674;23.284;2022-11-15T02:39:43;56.72;;;28.10;;
30818;SDS011;17546;42.674;23.284;2022-11-15T02:42:21;62.55;;;28.67;;
30818;SDS011;17546;42.674;23.284;2022-11-15T02:45:11;59.80;;;29.05;;
30818;SDS011;17546;42.674;23.284;2022-11-15T02:47:57;65.50;;;30.33;;
30818;SDS011;17546;42.674;23.284;2022-11-15T02:50:25;66.38;;;30.35;;
30818;SDS011;17546;42.674;23.284;2022-11-15T02:52:53;76.43;;;31.73;;
30818;SDS011;17546;42.674;23.284;2022-11-15T02:55:29;62.53;;;30.58;;
30818;SDS011;17546;42.674;23.284;2022-11-15T03:01:03;68.38;;;31.05;;
30818;SDS011;17546;42.674;23.284;2022-11-15T03:06:28;64.25;;;30.90;;
30818;SDS011;17546;42.674;23.284;2022-11-15T03:09:17;60.47;;;27.30;;
30818;SDS011;17546;42.674;23.284;2022-11-15T03:11:53;62.97;;;29.38;;
30818;SDS011;17546;42.674;23.284;2022-11-15T03:14:35;63.78;;;29.50;;
30818;SDS011;17546;42.674;23.284;2022-11-15T03:17:13;69.10;;;31.08;;
30818;SDS011;17546;42.674;23.284;2022-11-15T03:19:53;66.30;;;32.90;;
30818;SDS011;17546;42.674;23.284;2022-11-15T03:22:21;72.28;;;32.63;;
30818;SDS011;17546;42.674;23.284;2022-11-15T03:24:52;71.05;;;33.20;;
30818;SDS011;17546;42.674;23.284;2022-11-15T03:27:21;75.35;;;33.22;;
30818;SDS011;17546;42.674;23.284;2022-11-15T03:29:50;79.70;;;33.92;;
30818;SDS011;17546;42.674;23.284;2022-11-15T03:32:20;69.82;;;33.42;;
30818;SDS011;17546;42.674;23.284;2022-11-15T03:34:55;70.38;;;33.25;;
30818;SDS011;17546;42.674;23.284;2022-11-15T03:38:11;81.45;;;35.15;;
30818;SDS011;17546;42.674;23.284;2022-11-15T03:40:45;72.13;;;34.92;;
30818;SDS011;17546;42.674;23.284;2022-11-15T03:46:05;76.72;;;35.15;;
30818;SDS011;17546;42.674;23.284;2022-11-15T03:48:41;77.00;;;35.40;;
30818;SDS011;17546;42.674;23.284;2022-11-15T03:51:12;76.57;;;36.20;;
30818;SDS011;17546;42.674;23.284;2022-11-15T03:53:38;76.93;;;37.03;;
30818;SDS011;17546;42.674;23.284;2022-11-15T03:56:05;83.93;;;37.97;;
30818;SDS011;17546;42.674;23.284;2022-11-15T03:58:31;80.88;;;38.17;;
30818;SDS011;17546;42.674;23.284;2022-11-15T04:00:56;78.95;;;35.97;;
30818;SDS011;17546;42.674;23.284;2022-11-15T04:03:21;80.95;;;35.35;;
30818;SDS011;17546;42.674;23.284;2022-11-15T04:05:47;98.50;;;38.55;;
30818;SDS011;17546;42.674;23.284;2022-11-15T04:08:12;103.97;;;40.88;;
30818;SDS011;17546;42.674;23.284;2022-11-15T04:10:38;103.10;;;39.85;;
30818;SDS011;17546;42.674;23.284;2022-11-15T04:13:04;115.82;;;42.50;;
30818;SDS011;17546;42.674;23.284;2022-11-15T04:15:29;119.55;;;42.05;;
30818;SDS011;17546;42.674;23.284;2022-11-15T04:17:56;121.47;;;42.95;;
30818;SDS011;17546;42.674;23.284;2022-11-15T04:20:26;124.57;;;42.63;;
30818;SDS011;17546;42.674;23.284;2022-11-15T04:23:13;125.95;;;42.58;;
30818;SDS011;17546;42.674;23.284;2022-11-15T04:26:01;106.88;;;40.05;;
30818;SDS011;17546;42.674;23.284;2022-11-15T04:28:29;106.80;;;41.00;;
30818;SDS011;17546;42.674;23.284;2022-11-15T04:30:55;123.07;;;42.83;;
30818;SDS011;17546;42.674;23.284;2022-11-15T04:33:21;116.70;;;42.05;;
30818;SDS011;17546;42.674;23.284;2022-11-15T04:35:46;123.47;;;41.90;;
30818;SDS011;17546;42.674;23.284;2022-11-15T04:38:32;125.43;;;43.05;;
30818;SDS011;17546;42.674;23.284;2022-11-15T04:40:57;139.48;;;42.83;;
30818;SDS011;17546;42.674;23.284;2022-11-15T04:43:23;139.57;;;44.28;;
30818;SDS011;17546;42.674;23.284;2022-11-15T04:45:48;124.78;;;42.97;;
30818;SDS011;17546;42.674;23.284;2022-11-15T04:48:14;131.38;;;44.10;;
30818;SDS011;17546;42.674;23.284;2022-11-15T04:50:39;132.52;;;46.00;;
30818;SDS011;17546;42.674;23.284;2022-11-15T04:53:04;153.27;;;45.88;;
30818;SDS011;17546;42.674;23.284;2022-11-15T04:55:30;151.95;;;46.10;;
30818;SDS011;17546;42.674;23.284;2022-11-15T04:57:59;130.85;;;45.63;;
30818;SDS011;17546;42.674;23.284;2022-11-15T05:00:26;137.32;;;46.58;;
30818;SDS011;17546;42.674;23.284;2022-11-15T05:02:52;153.93;;;50.03;;
30818;SDS011;17546;42.674;23.284;2022-11-15T05:05:36;149.63;;;48.33;;
30818;SDS011;17546;42.674;23.284;2022-11-15T05:08:02;151.52;;;49.67;;
30818;SDS011;17546;42.674;23.284;2022-11-15T05:10:28;168.18;;;49.92;;
30818;SDS011;17546;42.674;23.284;2022-11-15T05:12:54;156.88;;;50.50;;
30818;SDS011;17546;42.674;23.284;2022-11-15T05:15:19;160.50;;;51.55;;
30818;SDS011;17546;42.674;23.284;2022-11-15T05:17:44;170.93;;;50.88;;
30818;SDS011;17546;42.674;23.284;2022-11-15T05:20:10;172.63;;;50.47;;
30818;SDS011;17546;42.674;23.284;2022-11-15T05:22:36;175.50;;;54.17;;
30818;SDS011;17546;42.674;23.284;2022-11-15T05:25:02;187.68;;;54.08;;
30818;SDS011;17546;42.674;23.284;2022-11-15T05:27:27;189.85;;;57.55;;
30818;SDS011;17546;42.674;23.284;2022-11-15T05:29:53;192.23;;;60.33;;
30818;SDS011;17546;42.674;23.284;2022-11-15T05:32:18;181.57;;;58.85;;
30818;SDS011;17546;42.674;23.284;2022-11-15T05:34:44;192.18;;;58.17;;
30818;SDS011;17546;42.674;23.284;2022-11-15T05:37:10;188.50;;;57.40;;
30818;SDS011;17546;42.674;23.284;2022-11-15T05:39:35;187.77;;;57.90;;
30818;SDS011;17546;42.674;23.284;2022-11-15T05:42:04;193.85;;;58.05;;
30818;SDS011;17546;42.674;23.284;2022-11-15T05:44:47;183.15;;;59.03;;
30818;SDS011;17546;42.674;23.284;2022-11-15T05:47:19;213.27;;;62.47;;
30818;SDS011;17546;42.674;23.284;2022-11-15T05:49:49;206.85;;;59.78;;
30818;SDS011;17546;42.674;23.284;2022-11-15T05:52:17;188.13;;;62.05;;
30818;SDS011;17546;42.674;23.284;2022-11-15T05:54:45;197.30;;;61.30;;
30818;SDS011;17546;42.674;23.284;2022-11-15T05:57:11;186.65;;;56.28;;
30818;SDS011;17546;42.674;23.284;2022-11-15T05:59:37;154.50;;;51.00;;
30818;SDS011;17546;42.674;23.284;2022-11-15T06:02:03;157.65;;;52.88;;
30818;SDS011;17546;42.674;23.284;2022-11-15T06:04:28;155.30;;;51.97;;
30818;SDS011;17546;42.674;23.284;2022-11-15T06:06:54;152.38;;;48.42;;
30818;SDS011;17546;42.674;23.284;2022-11-15T06:09:19;138.80;;;45.10;;
30818;SDS011;17546;42.674;23.284;2022-11-15T06:11:44;144.52;;;48.33;;
30818;SDS011;17546;42.674;23.284;2022-11-15T06:14:10;154.88;;;52.63;;
30818;SDS011;17546;42.674;23.284;2022-11-15T06:16:35;164.65;;;51.42;;
30818;SDS011;17546;42.674;23.284;2022-11-15T06:19:01;153.38;;;50.88;;
30818;SDS011;17546;42.674;23.284;2022-11-15T06:21:26;138.40;;;45.72;;
30818;SDS011;17546;42.674;23.284;2022-11-15T06:23:53;140.23;;;46.58;;
30818;SDS011;17546;42.674;23.284;2022-11-15T06:26:18;105.97;;;40.35;;
30818;SDS011;17546;42.674;23.284;2022-11-15T06:28:44;112.72;;;39.38;;
30818;SDS011;17546;42.674;23.284;2022-11-15T06:31:10;119.03;;;42.50;;
30818;SDS011;17546;42.674;23.284;2022-11-15T06:33:36;125.72;;;43.35;;
30818;SDS011;17546;42.674;23.284;2022-11-15T06:36:04;159.18;;;49.60;;
30818;SDS011;17546;42.674;23.284;2022-11-15T06:38:30;157.50;;;51.05;;
30818;SDS011;17546;42.674;23.284;2022-11-15T06:41:03;133.70;;;46.65;;
30818;SDS011;17546;42.674;23.284;2022-11-15T06:43:30;134.93;;;47.15;;
30818;SDS011;17546;42.674;23.284;2022-11-15T06:45:57;153.30;;;48.78;;
30818;SDS011;17546;42.674;23.284;2022-11-15T06:48:27;159.90;;;52.78;;
30818;SDS011;17546;42.674;23.284;2022-11-15T06:50:54;175.75;;;55.90;;
30818;SDS011;17546;42.674;23.284;2022-11-15T06:53:20;183.15;;;55.53;;
30818;SDS011;17546;42.674;23.284;2022-11-15T06:55:46;166.68;;;57.28;;
30818;SDS011;17546;42.674;23.284;2022-11-15T06:58:11;171.38;;;56.20;;
30818;SDS011;17546;42.674;23.284;2022-11-15T07:00:38;184.30;;;58.30;;
30818;SDS011;17546;42.674;23.284;2022-11-15T07:03:03;184.27;;;58.35;;
30818;SDS011;17546;42.674;23.284;2022-11-15T07:05:29;175.38;;;57.38;;
30818;SDS011;17546;42.674;23.284;2022-11-15T07:07:55;181.90;;;58.08;;
30818;SDS011;17546;42.674;23.284;2022-11-15T07:10:22;184.77;;;58.35;;
30818;SDS011;17546;42.674;23.284;2022-11-15T07:12:53;196.32;;;63.15;;
30818;SDS011;17546;42.674;23.284;2022-11-15T07:15:24;209.02;;;65.68;;
30818;SDS011;17546;42.674;23.284;2022-11-15T07:17:50;196.93;;;65.10;;
30818;SDS011;17546;42.674;23.284;2022-11-15T07:20:16;204.18;;;65.38;;
30818;SDS011;17546;42.674;23.284;2022-11-15T07:22:42;207.15;;;64.78;;
30818;SDS011;17546;42.674;23.284;2022-11-15T07:25:10;192.48;;;62.00;;
30818;SDS011;17546;42.674;23.284;2022-11-15T07:27:36;180.35;;;59.70;;
30818;SDS011;17546;42.674;23.284;2022-11-15T07:30:01;172.90;;;59.03;;
30818;SDS011;17546;42.674;23.284;2022-11-15T07:32:27;168.23;;;55.97;;
30818;SDS011;17546;42.674;23.284;2022-11-15T07:34:53;166.75;;;58.05;;
30818;SDS011;17546;42.674;23.284;2022-11-15T07:37:19;163.10;;;57.35;;
30818;SDS011;17546;42.674;23.284;2022-11-15T07:39:44;159.77;;;58.13;;
30818;SDS011;17546;42.674;23.284;2022-11-15T07:42:09;165.82;;;59.10;;
30818;SDS011;17546;42.674;23.284;2022-11-15T07:44:53;171.98;;;60.65;;
30818;SDS011;17546;42.674;23.284;2022-11-15T07:47:19;184.68;;;60.28;;
30818;SDS011;17546;42.674;23.284;2022-11-15T07:49:45;195.18;;;62.05;;
30818;SDS011;17546;42.674;23.284;2022-11-15T07:52:13;176.55;;;57.58;;
30818;SDS011;17546;42.674;23.284;2022-11-15T07:54:38;176.95;;;59.40;;
30818;SDS011;17546;42.674;23.284;2022-11-15T07:57:04;183.02;;;62.45;;
30818;SDS011;17546;42.674;23.284;2022-11-15T07:59:31;177.25;;;60.92;;
30818;SDS011;17546;42.674;23.284;2022-11-15T08:01:57;165.13;;;60.78;;
30818;SDS011;17546;42.674;23.284;2022-11-15T08:04:22;184.77;;;63.78;;
30818;SDS011;17546;42.674;23.284;2022-11-15T08:06:48;200.88;;;64.85;;
30818;SDS011;17546;42.674;23.284;2022-11-15T08:09:13;184.88;;;63.78;;
30818;SDS011;17546;42.674;23.284;2022-11-15T08:11:39;207.98;;;68.07;;
30818;SDS011;17546;42.674;23.284;2022-11-15T08:14:04;198.15;;;68.32;;
30818;SDS011;17546;42.674;23.284;2022-11-15T08:16:29;202.80;;;69.43;;
30818;SDS011;17546;42.674;23.284;2022-11-15T08:18:55;206.13;;;70.10;;
30818;SDS011;17546;42.674;23.284;2022-11-15T08:21:21;207.38;;;70.05;;
30818;SDS011;17546;42.674;23.284;2022-11-15T08:23:47;193.20;;;68.70;;
30818;SDS011;17546;42.674;23.284;2022-11-15T08:26:12;215.63;;;71.70;;
30818;SDS011;17546;42.674;23.284;2022-11-15T08:28:38;214.50;;;71.15;;
30818;SDS011;17546;42.674;23.284;2022-11-15T08:31:03;201.90;;;69.57;;
30818;SDS011;17546;42.674;23.284;2022-11-15T08:33:29;207.30;;;68.13;;
30818;SDS011;17546;42.674;23.284;2022-11-15T08:35:56;213.38;;;71.50;;
30818;SDS011;17546;42.674;23.284;2022-11-15T08:38:22;206.52;;;71.32;;
30818;SDS011;17546;42.674;23.284;2022-11-15T08:40:48;205.38;;;67.63;;
30818;SDS011;17546;42.674;23.284;2022-11-15T08:43:23;193.60;;;70.35;;
30818;SDS011;17546;42.674;23.284;2022-11-15T08:45:49;221.02;;;73.35;;
30818;SDS011;17546;42.674;23.284;2022-11-15T08:48:14;204.98;;;71.68;;
30818;SDS011;17546;42.674;23.284;2022-11-15T08:50:40;207.20;;;73.05;;
30818;SDS011;17546;42.674;23.284;2022-11-15T08:53:06;204.75;;;71.47;;
30818;SDS011;17546;42.674;23.284;2022-11-15T08:55:35;217.20;;;73.60;;
30818;SDS011;17546;42.674;23.284;2022-11-15T08:58:02;215.75;;;71.18;;
30818;SDS011;17546;42.674;23.284;2022-11-15T09:00:27;200.88;;;74.68;;
30818;SDS011;17546;42.674;23.284;2022-11-15T09:02:54;203.75;;;72.10;;
30818;SDS011;17546;42.674;23.284;2022-11-15T09:05:19;216.57;;;72.38;;
30818;SDS011;17546;42.674;23.284;2022-11-15T09:07:45;203.10;;;73.35;;
30818;SDS011;17546;42.674;23.284;2022-11-15T09:10:10;204.25;;;73.57;;
30818;SDS011;17546;42.674;23.284;2022-11-15T09:12:36;202.32;;;72.90;;
30818;SDS011;17546;42.674;23.284;2022-11-15T09:15:01;196.00;;;70.35;;
30818;SDS011;17546;42.674;23.284;2022-11-15T09:17:27;184.35;;;69.30;;
30818;SDS011;17546;42.674;23.284;2022-11-15T09:19:52;175.93;;;65.85;;
30818;SDS011;17546;42.674;23.284;2022-11-15T09:22:18;186.95;;;70.68;;
30818;SDS011;17546;42.674;23.284;2022-11-15T09:24:43;193.02;;;71.80;;
30818;SDS011;17546;42.674;23.284;2022-11-15T09:27:09;188.27;;;73.22;;
30818;SDS011;17546;42.674;23.284;2022-11-15T09:29:34;182.15;;;72.65;;
30818;SDS011;17546;42.674;23.284;2022-11-15T09:32:00;192.68;;;74.10;;
30818;SDS011;17546;42.674;23.284;2022-11-15T09:34:25;198.27;;;77.70;;
30818;SDS011;17546;42.674;23.284;2022-11-15T09:36:51;182.38;;;72.15;;
30818;SDS011;17546;42.674;23.284;2022-11-15T09:39:16;187.05;;;72.93;;
30818;SDS011;17546;42.674;23.284;2022-11-15T09:45:06;183.10;;;70.32;;
30818;SDS011;17546;42.674;23.284;2022-11-15T09:50:36;181.40;;;72.95;;
30818;SDS011;17546;42.674;23.284;2022-11-15T09:53:11;176.60;;;72.38;;
30818;SDS011;17546;42.674;23.284;2022-11-15T09:56:03;166.55;;;69.53;;
30818;SDS011;17546;42.674;23.284;2022-11-15T10:01:27;175.75;;;70.65;;
30818;SDS011;17546;42.674;23.284;2022-11-15T10:04:15;179.90;;;71.50;;
30818;SDS011;17546;42.674;23.284;2022-11-15T10:06:46;176.40;;;71.00;;
30818;SDS011;17546;42.674;23.284;2022-11-15T10:09:39;181.15;;;73.78;;
30818;SDS011;17546;42.674;23.284;2022-11-15T10:12:12;171.35;;;70.40;;
30818;SDS011;17546;42.674;23.284;2022-11-15T10:14:39;166.27;;;70.43;;
30818;SDS011;17546;42.674;23.284;2022-11-15T10:22:56;188.93;;;73.70;;
30818;SDS011;17546;42.674;23.284;2022-11-15T10:27:56;180.38;;;71.00;;
30818;SDS011;17546;42.674;23.284;2022-11-15T10:30:46;176.40;;;71.15;;
30818;SDS011;17546;42.674;23.284;2022-11-15T10:41:35;173.73;;;70.07;;
30818;SDS011;17546;42.674;23.284;2022-11-15T10:46:47;185.77;;;72.57;;
30818;SDS011;17546;42.674;23.284;2022-11-15T10:49:20;165.15;;;70.43;;
30818;SDS011;17546;42.674;23.284;2022-11-15T10:57:00;163.68;;;69.20;;
30818;SDS011;17546;42.674;23.284;2022-11-15T10:59:37;158.88;;;65.00;;
30818;SDS011;17546;42.674;23.284;2022-11-15T11:02:21;142.55;;;60.67;;
30818;SDS011;17546;42.674;23.284;2022-11-15T11:04:57;147.82;;;64.95;;
30818;SDS011;17546;42.674;23.284;2022-11-15T11:07:28;145.52;;;63.15;;
30818;SDS011;17546;42.674;23.284;2022-11-15T11:12:29;146.55;;;61.70;;
30818;SDS011;17546;42.674;23.284;2022-11-15T11:14:57;139.77;;;62.28;;
30818;SDS011;17546;42.674;23.284;2022-11-15T11:28:21;134.13;;;58.80;;
30818;SDS011;17546;42.674;23.284;2022-11-15T11:33:57;131.23;;;58.63;;
30818;SDS011;17546;42.674;23.284;2022-11-15T11:47:23;151.77;;;66.78;;
30818;SDS011;17546;42.674;23.284;2022-11-15T11:49:54;150.93;;;65.72;;
30818;SDS011;17546;42.674;23.284;2022-11-15T11:55:56;147.40;;;66.70;;
30818;SDS011;17546;42.674;23.284;2022-11-15T11:58:59;158.40;;;68.97;;
30818;SDS011;17546;42.674;23.284;2022-11-15T12:01:20;155.15;;;68.05;;
30818;SDS011;17546;42.674;23.284;2022-11-15T12:03:55;156.45;;;68.75;;
30818;SDS011;17546;42.674;23.284;2022-11-15T12:06:42;153.82;;;70.05;;
30818;SDS011;17546;42.674;23.284;2022-11-15T12:09:32;167.00;;;71.80;;
30818;SDS011;17546;42.674;23.284;2022-11-15T12:12:08;157.10;;;71.03;;
30818;SDS011;17546;42.674;23.284;2022-11-15T12:17:26;150.40;;;69.28;;
30818;SDS011;17546;42.674;23.284;2022-11-15T12:19:58;165.82;;;72.53;;
30818;SDS011;17546;42.674;23.284;2022-11-15T12:25:13;170.35;;;74.47;;
30818;SDS011;17546;42.674;23.284;2022-11-15T12:27:41;159.88;;;71.90;;
30818;SDS011;17546;42.674;23.284;2022-11-15T12:30:38;153.45;;;69.15;;
30818;SDS011;17546;42.674;23.284;2022-11-15T12:33:09;154.32;;;67.05;;
30818;SDS011;17546;42.674;23.284;2022-11-15T12:36:04;147.57;;;67.75;;
30818;SDS011;17546;42.674;23.284;2022-11-15T12:41:30;150.55;;;68.75;;
30818;SDS011;17546;42.674;23.284;2022-11-15T12:43:57;154.70;;;68.10;;
30818;SDS011;17546;42.674;23.284;2022-11-15T12:48:57;144.98;;;66.22;;
30818;SDS011;17546;42.674;23.284;2022-11-15T12:54:47;146.65;;;66.82;;
30818;SDS011;17546;42.674;23.284;2022-11-15T12:59:52;137.13;;;63.40;;
30818;SDS011;17546;42.674;23.284;2022-11-15T13:17:37;142.35;;;64.80;;
30818;SDS011;17546;42.674;23.284;2022-11-15T13:22:40;139.02;;;64.15;;
30818;SDS011;17546;42.674;23.284;2022-11-15T13:30:41;134.02;;;63.70;;
30818;SDS011;17546;42.674;23.284;2022-11-15T13:33:33;139.27;;;64.18;;
30818;SDS011;17546;42.674;23.284;2022-11-15T13:36:05;138.27;;;63.95;;
30818;SDS011;17546;42.674;23.284;2022-11-15T13:38:39;136.82;;;62.55;;
30818;SDS011;17546;42.674;23.284;2022-11-15T13:41:18;131.90;;;63.83;;
30818;SDS011;17546;42.674;23.284;2022-11-15T13:43:45;148.63;;;65.10;;
30818;SDS011;17546;42.674;23.284;2022-11-15T13:48:37;136.38;;;61.63;;
30818;SDS011;17546;42.674;23.284;2022-11-15T13:51:05;143.57;;;66.80;;
30818;SDS011;17546;42.674;23.284;2022-11-15T13:53:44;138.82;;;64.82;;
30818;SDS011;17546;42.674;23.284;2022-11-15T13:56:16;135.43;;;63.15;;
30818;SDS011;17546;42.674;23.284;2022-11-15T13:58:45;133.43;;;62.78;;
30818;SDS011;17546;42.674;23.284;2022-11-15T14:01:18;130.43;;;65.10;;
30818;SDS011;17546;42.674;23.284;2022-11-15T14:04:09;141.40;;;64.95;;
30818;SDS011;17546;42.674;23.284;2022-11-15T14:06:42;143.75;;;64.05;;
30818;SDS011;17546;42.674;23.284;2022-11-15T14:11:36;144.30;;;64.68;;
30818;SDS011;17546;42.674;23.284;2022-11-15T14:14:08;146.35;;;63.78;;
30818;SDS011;17546;42.674;23.284;2022-11-15T14:19:06;151.13;;;65.53;;
30818;SDS011;17546;42.674;23.284;2022-11-15T14:21:34;146.45;;;66.88;;
30818;SDS011;17546;42.674;23.284;2022-11-15T14:24:20;150.90;;;69.10;;
30818;SDS011;17546;42.674;23.284;2022-11-15T14:26:46;150.75;;;69.28;;
30818;SDS011;17546;42.674;23.284;2022-11-15T14:29:22;164.88;;;71.60;;
30818;SDS011;17546;42.674;23.284;2022-11-15T14:34:41;157.05;;;68.70;;
30818;SDS011;17546;42.674;23.284;2022-11-15T14:37:50;150.55;;;70.97;;
30818;SDS011;17546;42.674;23.284;2022-11-15T14:39:59;156.30;;;71.38;;
30818;SDS011;17546;42.674;23.284;2022-11-15T14:42:26;146.18;;;69.30;;
30818;SDS011;17546;42.674;23.284;2022-11-15T14:44:52;148.93;;;68.63;;
30818;SDS011;17546;42.674;23.284;2022-11-15T14:47:17;152.68;;;68.32;;
30818;SDS011;17546;42.674;23.284;2022-11-15T14:49:43;150.35;;;67.63;;
30818;SDS011;17546;42.674;23.284;2022-11-15T14:55:10;149.02;;;68.68;;
30818;SDS011;17546;42.674;23.284;2022-11-15T14:57:41;165.02;;;76.05;;
30818;SDS011;17546;42.674;23.284;2022-11-15T15:00:07;165.20;;;73.32;;
30818;SDS011;17546;42.674;23.284;2022-11-15T15:02:34;175.25;;;78.20;;
30818;SDS011;17546;42.674;23.284;2022-11-15T15:05:00;172.90;;;80.47;;
30818;SDS011;17546;42.674;23.284;2022-11-15T15:07:28;167.07;;;80.65;;
30818;SDS011;17546;42.674;23.284;2022-11-15T15:09:53;180.50;;;77.05;;
30818;SDS011;17546;42.674;23.284;2022-11-15T15:12:22;169.50;;;74.53;;
30818;SDS011;17546;42.674;23.284;2022-11-15T15:14:49;161.88;;;74.07;;
30818;SDS011;17546;42.674;23.284;2022-11-15T15:17:15;165.25;;;73.03;;
30818;SDS011;17546;42.674;23.284;2022-11-15T15:19:41;152.45;;;68.45;;
30818;SDS011;17546;42.674;23.284;2022-11-15T15:22:15;144.10;;;64.80;;
30818;SDS011;17546;42.674;23.284;2022-11-15T15:24:42;141.90;;;64.20;;
30818;SDS011;17546;42.674;23.284;2022-11-15T15:27:09;135.88;;;61.72;;
30818;SDS011;17546;42.674;23.284;2022-11-15T15:29:35;134.45;;;62.58;;
30818;SDS011;17546;42.674;23.284;2022-11-15T15:32:00;132.88;;;60.08;;
30818;SDS011;17546;42.674;23.284;2022-11-15T15:34:26;135.68;;;58.95;;
30818;SDS011;17546;42.674;23.284;2022-11-15T15:39:53;137.00;;;59.55;;
30818;SDS011;17546;42.674;23.284;2022-11-15T15:42:20;134.02;;;58.38;;
30818;SDS011;17546;42.674;23.284;2022-11-15T15:44:46;130.35;;;59.50;;
30818;SDS011;17546;42.674;23.284;2022-11-15T15:47:32;127.90;;;59.22;;
30818;SDS011;17546;42.674;23.284;2022-11-15T15:49:57;140.57;;;60.13;;
30818;SDS011;17546;42.674;23.284;2022-11-15T15:52:22;131.95;;;61.28;;
30818;SDS011;17546;42.674;23.284;2022-11-15T15:54:50;135.70;;;58.75;;
30818;SDS011;17546;42.674;23.284;2022-11-15T15:57:15;131.88;;;61.10;;
30818;SDS011;17546;42.674;23.284;2022-11-15T15:59:40;135.75;;;61.80;;
30818;SDS011;17546;42.674;23.284;2022-11-15T16:02:08;134.98;;;62.35;;
30818;SDS011;17546;42.674;23.284;2022-11-15T16:04:37;134.23;;;60.92;;
30818;SDS011;17546;42.674;23.284;2022-11-15T16:07:03;135.20;;;61.70;;
30818;SDS011;17546;42.674;23.284;2022-11-15T16:09:29;129.10;;;61.80;;
30818;SDS011;17546;42.674;23.284;2022-11-15T16:12:13;133.55;;;60.45;;
30818;SDS011;17546;42.674;23.284;2022-11-15T16:14:41;135.32;;;63.88;;
30818;SDS011;17546;42.674;23.284;2022-11-15T16:17:08;170.40;;;78.90;;
30818;SDS011;17546;42.674;23.284;2022-11-15T16:19:40;178.52;;;80.88;;
30818;SDS011;17546;42.674;23.284;2022-11-15T16:22:06;155.50;;;72.80;;
30818;SDS011;17546;42.674;23.284;2022-11-15T16:24:31;177.70;;;70.97;;
30818;SDS011;17546;42.674;23.284;2022-11-15T16:26:56;161.95;;;69.03;;
30818;SDS011;17546;42.674;23.284;2022-11-15T16:29:24;148.23;;;67.40;;
30818;SDS011;17546;42.674;23.284;2022-11-15T16:31:49;148.73;;;67.60;;
30818;SDS011;17546;42.674;23.284;2022-11-15T16:34:15;158.48;;;70.53;;
30818;SDS011;17546;42.674;23.284;2022-11-15T16:36:41;159.90;;;71.22;;
30818;SDS011;17546;42.674;23.284;2022-11-15T16:39:08;172.88;;;75.53;;
30818;SDS011;17546;42.674;23.284;2022-11-15T16:41:38;182.25;;;81.70;;
30818;SDS011;17546;42.674;23.284;2022-11-15T16:44:04;180.98;;;85.03;;